sensor_id;sensor_type;location;lat;lon;timestamp;P1;durP1;ratioP1;P2;durP2;ratioP2
70420;SDS011;57848;51.938;15.520;2023-07-29T00:00:17;7.00;;;3.53;;
70420;SDS011;57848;51.938;15.520;2023-07-29T00:02:42;6.90;;;3.57;;
70420;SDS011;57848;51.938;15.520;2023-07-29T00:05:07;8.40;;;3.13;;
70420;SDS011;57848;51.938;15.520;2023-07-29T00:07:33;6.43;;;3.23;;
70420;SDS011;57848;51.938;15.520;2023-07-29T00:09:58;6.40;;;2.93;;
70420;SDS011;57848;51.938;15.520;2023-07-29T00:12:23;8.60;;;3.63;;
70420;SDS011;57848;51.938;15.520;2023-07-29T00:14:49;7.77;;;3.30;;
70420;SDS011;57848;51.938;15.520;2023-07-29T00:17:14;8.50;;;3.40;;
70420;SDS011;57848;51.938;15.520;2023-07-29T00:19:39;8.07;;;3.57;;
70420;SDS011;57848;51.938;15.520;2023-07-29T00:22:05;8.03;;;4.20;;
70420;SDS011;57848;51.938;15.520;2023-07-29T00:24:30;8.90;;;3.87;;
70420;SDS011;57848;51.938;15.520;2023-07-29T00:26:56;7.30;;;3.67;;
70420;SDS011;57848;51.938;15.520;2023-07-29T00:29:21;7.10;;;3.87;;
70420;SDS011;57848;51.938;15.520;2023-07-29T00:31:46;6.70;;;3.23;;
70420;SDS011;57848;51.938;15.520;2023-07-29T00:34:12;9.48;;;3.58;;
70420;SDS011;57848;51.938;15.520;2023-07-29T00:36:42;6.97;;;3.67;;
70420;SDS011;57848;51.938;15.520;2023-07-29T00:39:07;7.97;;;4.33;;
70420;SDS011;57848;51.938;15.520;2023-07-29T00:41:32;8.02;;;3.58;;
70420;SDS011;57848;51.938;15.520;2023-07-29T00:43:58;10.00;;;4.00;;
70420;SDS011;57848;51.938;15.520;2023-07-29T00:46:23;8.20;;;4.03;;
70420;SDS011;57848;51.938;15.520;2023-07-29T00:48:49;7.07;;;3.55;;
70420;SDS011;57848;51.938;15.520;2023-07-29T00:51:15;8.47;;;3.80;;
70420;SDS011;57848;51.938;15.520;2023-07-29T00:53:40;7.17;;;3.63;;
70420;SDS011;57848;51.938;15.520;2023-07-29T00:56:06;7.70;;;4.13;;
70420;SDS011;57848;51.938;15.520;2023-07-29T00:58:31;12.40;;;3.83;;
70420;SDS011;57848;51.938;15.520;2023-07-29T01:00:57;7.47;;;3.90;;
70420;SDS011;57848;51.938;15.520;2023-07-29T01:03:22;8.52;;;3.97;;
70420;SDS011;57848;51.938;15.520;2023-07-29T01:05:57;7.00;;;3.70;;
70420;SDS011;57848;51.938;15.520;2023-07-29T01:08:44;7.90;;;3.50;;
70420;SDS011;57848;51.938;15.520;2023-07-29T01:13:53;8.63;;;4.15;;
70420;SDS011;57848;51.938;15.520;2023-07-29T01:16:21;8.18;;;3.92;;
70420;SDS011;57848;51.938;15.520;2023-07-29T01:18:50;7.70;;;3.85;;
70420;SDS011;57848;51.938;15.520;2023-07-29T01:21:19;9.98;;;4.72;;
70420;SDS011;57848;51.938;15.520;2023-07-29T01:23:47;7.77;;;4.23;;
70420;SDS011;57848;51.938;15.520;2023-07-29T01:26:12;8.18;;;4.35;;
70420;SDS011;57848;51.938;15.520;2023-07-29T01:28:39;8.00;;;4.03;;
70420;SDS011;57848;51.938;15.520;2023-07-29T01:33:59;8.37;;;3.83;;
70420;SDS011;57848;51.938;15.520;2023-07-29T01:36:32;7.80;;;4.07;;
70420;SDS011;57848;51.938;15.520;2023-07-29T01:38:59;9.57;;;4.70;;
70420;SDS011;57848;51.938;15.520;2023-07-29T01:41:26;7.78;;;3.80;;
70420;SDS011;57848;51.938;15.520;2023-07-29T01:43:52;8.38;;;4.00;;
70420;SDS011;57848;51.938;15.520;2023-07-29T01:46:19;11.13;;;4.50;;
70420;SDS011;57848;51.938;15.520;2023-07-29T01:48:47;9.32;;;5.03;;
70420;SDS011;57848;51.938;15.520;2023-07-29T01:51:13;8.38;;;4.53;;
70420;SDS011;57848;51.938;15.520;2023-07-29T01:53:38;8.97;;;4.73;;
70420;SDS011;57848;51.938;15.520;2023-07-29T01:56:04;7.97;;;4.25;;
70420;SDS011;57848;51.938;15.520;2023-07-29T01:58:29;8.73;;;5.20;;
70420;SDS011;57848;51.938;15.520;2023-07-29T02:00:55;9.63;;;4.70;;
70420;SDS011;57848;51.938;15.520;2023-07-29T02:03:20;7.40;;;3.97;;
70420;SDS011;57848;51.938;15.520;2023-07-29T02:05:45;10.60;;;4.20;;
70420;SDS011;57848;51.938;15.520;2023-07-29T02:08:11;9.53;;;5.23;;
70420;SDS011;57848;51.938;15.520;2023-07-29T02:10:37;8.80;;;4.90;;
70420;SDS011;57848;51.938;15.520;2023-07-29T02:13:02;12.48;;;6.30;;
70420;SDS011;57848;51.938;15.520;2023-07-29T02:15:28;10.20;;;5.20;;
70420;SDS011;57848;51.938;15.520;2023-07-29T02:17:54;9.40;;;5.15;;
70420;SDS011;57848;51.938;15.520;2023-07-29T02:20:19;9.23;;;5.50;;
70420;SDS011;57848;51.938;15.520;2023-07-29T02:22:45;10.10;;;5.27;;
70420;SDS011;57848;51.938;15.520;2023-07-29T02:25:10;9.25;;;5.43;;
70420;SDS011;57848;51.938;15.520;2023-07-29T02:27:36;8.73;;;5.23;;
70420;SDS011;57848;51.938;15.520;2023-07-29T02:30:02;10.90;;;5.57;;
70420;SDS011;57848;51.938;15.520;2023-07-29T02:32:28;10.52;;;5.63;;
70420;SDS011;57848;51.938;15.520;2023-07-29T02:34:53;8.97;;;5.60;;
70420;SDS011;57848;51.938;15.520;2023-07-29T02:37:18;11.57;;;6.10;;
70420;SDS011;57848;51.938;15.520;2023-07-29T02:39:45;10.77;;;6.30;;
70420;SDS011;57848;51.938;15.520;2023-07-29T02:42:10;10.13;;;5.90;;
70420;SDS011;57848;51.938;15.520;2023-07-29T02:44:36;10.63;;;6.40;;
70420;SDS011;57848;51.938;15.520;2023-07-29T02:47:01;10.20;;;5.87;;
70420;SDS011;57848;51.938;15.520;2023-07-29T02:49:26;10.03;;;5.97;;
70420;SDS011;57848;51.938;15.520;2023-07-29T02:51:52;13.03;;;6.63;;
70420;SDS011;57848;51.938;15.520;2023-07-29T02:54:17;11.17;;;6.53;;
70420;SDS011;57848;51.938;15.520;2023-07-29T02:56:42;11.47;;;5.73;;
70420;SDS011;57848;51.938;15.520;2023-07-29T02:59:08;10.40;;;6.43;;
70420;SDS011;57848;51.938;15.520;2023-07-29T03:01:33;10.67;;;6.23;;
70420;SDS011;57848;51.938;15.520;2023-07-29T03:03:58;11.13;;;6.40;;
70420;SDS011;57848;51.938;15.520;2023-07-29T03:06:24;11.23;;;6.27;;
70420;SDS011;57848;51.938;15.520;2023-07-29T03:08:49;10.75;;;6.13;;
70420;SDS011;57848;51.938;15.520;2023-07-29T03:11:15;11.10;;;6.03;;
70420;SDS011;57848;51.938;15.520;2023-07-29T03:13:41;10.68;;;6.00;;
70420;SDS011;57848;51.938;15.520;2023-07-29T03:16:07;11.10;;;6.30;;
70420;SDS011;57848;51.938;15.520;2023-07-29T03:18:34;10.88;;;6.80;;
70420;SDS011;57848;51.938;15.520;2023-07-29T03:21:00;10.38;;;6.10;;
70420;SDS011;57848;51.938;15.520;2023-07-29T03:23:25;9.90;;;6.13;;
70420;SDS011;57848;51.938;15.520;2023-07-29T03:25:52;11.32;;;6.28;;
70420;SDS011;57848;51.938;15.520;2023-07-29T03:28:23;10.60;;;5.57;;
70420;SDS011;57848;51.938;15.520;2023-07-29T03:30:49;10.55;;;5.78;;
70420;SDS011;57848;51.938;15.520;2023-07-29T03:33:14;9.80;;;5.57;;
70420;SDS011;57848;51.938;15.520;2023-07-29T03:35:39;9.27;;;5.30;;
70420;SDS011;57848;51.938;15.520;2023-07-29T03:38:05;10.83;;;5.77;;
70420;SDS011;57848;51.938;15.520;2023-07-29T03:40:30;8.60;;;5.17;;
70420;SDS011;57848;51.938;15.520;2023-07-29T03:42:56;8.10;;;4.73;;
70420;SDS011;57848;51.938;15.520;2023-07-29T03:45:21;10.73;;;5.00;;
70420;SDS011;57848;51.938;15.520;2023-07-29T03:47:46;11.25;;;5.22;;
70420;SDS011;57848;51.938;15.520;2023-07-29T03:50:12;9.60;;;4.97;;
70420;SDS011;57848;51.938;15.520;2023-07-29T03:52:37;9.87;;;5.60;;
70420;SDS011;57848;51.938;15.520;2023-07-29T03:55:02;10.03;;;5.13;;
70420;SDS011;57848;51.938;15.520;2023-07-29T03:57:28;9.98;;;5.43;;
70420;SDS011;57848;51.938;15.520;2023-07-29T03:59:54;9.07;;;5.00;;
70420;SDS011;57848;51.938;15.520;2023-07-29T04:02:19;9.85;;;5.93;;
70420;SDS011;57848;51.938;15.520;2023-07-29T04:04:45;11.80;;;6.00;;
70420;SDS011;57848;51.938;15.520;2023-07-29T04:07:13;10.40;;;5.85;;
70420;SDS011;57848;51.938;15.520;2023-07-29T04:09:38;11.47;;;5.43;;
70420;SDS011;57848;51.938;15.520;2023-07-29T04:12:04;11.07;;;6.20;;
70420;SDS011;57848;51.938;15.520;2023-07-29T04:14:30;11.25;;;6.05;;
70420;SDS011;57848;51.938;15.520;2023-07-29T04:16:55;12.43;;;6.63;;
70420;SDS011;57848;51.938;15.520;2023-07-29T04:19:21;11.32;;;6.45;;
70420;SDS011;57848;51.938;15.520;2023-07-29T04:21:47;11.20;;;6.65;;
70420;SDS011;57848;51.938;15.520;2023-07-29T04:24:12;12.80;;;6.40;;
70420;SDS011;57848;51.938;15.520;2023-07-29T04:26:38;11.50;;;6.10;;
70420;SDS011;57848;51.938;15.520;2023-07-29T04:29:04;10.13;;;5.95;;
70420;SDS011;57848;51.938;15.520;2023-07-29T04:31:30;12.17;;;7.07;;
70420;SDS011;57848;51.938;15.520;2023-07-29T04:33:55;11.17;;;6.67;;
70420;SDS011;57848;51.938;15.520;2023-07-29T04:36:20;10.87;;;6.70;;
70420;SDS011;57848;51.938;15.520;2023-07-29T04:38:46;11.80;;;6.30;;
70420;SDS011;57848;51.938;15.520;2023-07-29T04:41:11;11.07;;;6.53;;
70420;SDS011;57848;51.938;15.520;2023-07-29T04:43:36;11.73;;;7.10;;
70420;SDS011;57848;51.938;15.520;2023-07-29T04:46:02;12.67;;;6.97;;
70420;SDS011;57848;51.938;15.520;2023-07-29T04:48:27;11.88;;;7.40;;
70420;SDS011;57848;51.938;15.520;2023-07-29T04:50:53;12.00;;;7.27;;
70420;SDS011;57848;51.938;15.520;2023-07-29T04:53:18;11.13;;;6.60;;
70420;SDS011;57848;51.938;15.520;2023-07-29T04:55:44;12.80;;;7.38;;
70420;SDS011;57848;51.938;15.520;2023-07-29T04:58:09;13.47;;;7.20;;
70420;SDS011;57848;51.938;15.520;2023-07-29T05:00:35;11.97;;;7.30;;
70420;SDS011;57848;51.938;15.520;2023-07-29T05:03:02;13.10;;;7.07;;
70420;SDS011;57848;51.938;15.520;2023-07-29T05:05:27;13.37;;;7.60;;
70420;SDS011;57848;51.938;15.520;2023-07-29T05:07:53;15.45;;;7.38;;
70420;SDS011;57848;51.938;15.520;2023-07-29T05:10:18;11.70;;;7.27;;
70420;SDS011;57848;51.938;15.520;2023-07-29T05:12:45;12.98;;;7.20;;
70420;SDS011;57848;51.938;15.520;2023-07-29T05:15:10;16.00;;;7.57;;
70420;SDS011;57848;51.938;15.520;2023-07-29T05:17:36;12.67;;;7.23;;
70420;SDS011;57848;51.938;15.520;2023-07-29T05:20:01;11.10;;;6.70;;
70420;SDS011;57848;51.938;15.520;2023-07-29T05:22:27;12.10;;;7.25;;
70420;SDS011;57848;51.938;15.520;2023-07-29T05:24:52;13.00;;;6.13;;
70420;SDS011;57848;51.938;15.520;2023-07-29T05:27:18;11.25;;;6.82;;
70420;SDS011;57848;51.938;15.520;2023-07-29T05:29:43;10.20;;;6.40;;
70420;SDS011;57848;51.938;15.520;2023-07-29T05:32:09;10.80;;;6.73;;
70420;SDS011;57848;51.938;15.520;2023-07-29T05:34:34;11.87;;;7.23;;
70420;SDS011;57848;51.938;15.520;2023-07-29T05:37:00;10.77;;;6.43;;
70420;SDS011;57848;51.938;15.520;2023-07-29T05:39:25;10.00;;;6.00;;
70420;SDS011;57848;51.938;15.520;2023-07-29T05:41:51;10.80;;;6.17;;
70420;SDS011;57848;51.938;15.520;2023-07-29T05:44:16;12.30;;;5.97;;
70420;SDS011;57848;51.938;15.520;2023-07-29T05:46:41;9.75;;;5.22;;
70420;SDS011;57848;51.938;15.520;2023-07-29T05:49:07;9.17;;;5.70;;
70420;SDS011;57848;51.938;15.520;2023-07-29T05:51:32;9.93;;;5.20;;
70420;SDS011;57848;51.938;15.520;2023-07-29T05:53:58;9.20;;;5.50;;
70420;SDS011;57848;51.938;15.520;2023-07-29T05:56:23;8.43;;;3.97;;
70420;SDS011;57848;51.938;15.520;2023-07-29T05:58:50;7.97;;;4.45;;
70420;SDS011;57848;51.938;15.520;2023-07-29T06:01:16;9.77;;;5.38;;
70420;SDS011;57848;51.938;15.520;2023-07-29T06:03:41;8.23;;;5.10;;
70420;SDS011;57848;51.938;15.520;2023-07-29T06:06:07;8.63;;;5.13;;
70420;SDS011;57848;51.938;15.520;2023-07-29T06:08:32;8.30;;;4.50;;
70420;SDS011;57848;51.938;15.520;2023-07-29T06:10:59;10.63;;;4.53;;
70420;SDS011;57848;51.938;15.520;2023-07-29T06:13:25;6.10;;;2.80;;
70420;SDS011;57848;51.938;15.520;2023-07-29T06:15:50;6.13;;;2.80;;
70420;SDS011;57848;51.938;15.520;2023-07-29T06:18:15;6.23;;;2.80;;
70420;SDS011;57848;51.938;15.520;2023-07-29T06:20:41;6.53;;;2.47;;
70420;SDS011;57848;51.938;15.520;2023-07-29T06:23:07;6.70;;;3.63;;
70420;SDS011;57848;51.938;15.520;2023-07-29T06:25:33;6.03;;;2.30;;
70420;SDS011;57848;51.938;15.520;2023-07-29T06:27:58;5.85;;;2.28;;
70420;SDS011;57848;51.938;15.520;2023-07-29T06:30:24;6.43;;;2.93;;
70420;SDS011;57848;51.938;15.520;2023-07-29T06:32:49;5.60;;;2.33;;
70420;SDS011;57848;51.938;15.520;2023-07-29T06:35:14;5.83;;;2.57;;
70420;SDS011;57848;51.938;15.520;2023-07-29T06:37:40;5.50;;;2.30;;
70420;SDS011;57848;51.938;15.520;2023-07-29T06:40:05;5.67;;;2.63;;
70420;SDS011;57848;51.938;15.520;2023-07-29T06:42:31;7.05;;;2.42;;
70420;SDS011;57848;51.938;15.520;2023-07-29T06:44:56;5.67;;;2.23;;
70420;SDS011;57848;51.938;15.520;2023-07-29T06:47:22;5.97;;;2.07;;
70420;SDS011;57848;51.938;15.520;2023-07-29T06:49:47;6.90;;;2.00;;
70420;SDS011;57848;51.938;15.520;2023-07-29T06:52:12;5.75;;;2.20;;
70420;SDS011;57848;51.938;15.520;2023-07-29T06:54:38;5.57;;;2.17;;
70420;SDS011;57848;51.938;15.520;2023-07-29T06:57:03;8.63;;;2.70;;
70420;SDS011;57848;51.938;15.520;2023-07-29T06:59:29;7.53;;;2.63;;
70420;SDS011;57848;51.938;15.520;2023-07-29T07:01:54;11.65;;;2.88;;
70420;SDS011;57848;51.938;15.520;2023-07-29T07:04:19;5.67;;;2.53;;
70420;SDS011;57848;51.938;15.520;2023-07-29T07:06:45;7.77;;;3.00;;
70420;SDS011;57848;51.938;15.520;2023-07-29T07:09:10;5.73;;;2.57;;
70420;SDS011;57848;51.938;15.520;2023-07-29T07:11:36;5.97;;;2.90;;
70420;SDS011;57848;51.938;15.520;2023-07-29T07:14:01;7.53;;;2.60;;
70420;SDS011;57848;51.938;15.520;2023-07-29T07:16:26;6.45;;;2.47;;
70420;SDS011;57848;51.938;15.520;2023-07-29T07:18:54;5.43;;;2.00;;
70420;SDS011;57848;51.938;15.520;2023-07-29T07:21:19;7.05;;;2.28;;
70420;SDS011;57848;51.938;15.520;2023-07-29T07:23:45;5.40;;;2.30;;
70420;SDS011;57848;51.938;15.520;2023-07-29T07:26:10;5.43;;;2.27;;
70420;SDS011;57848;51.938;15.520;2023-07-29T07:28:35;5.07;;;1.83;;
70420;SDS011;57848;51.938;15.520;2023-07-29T07:31:00;6.50;;;2.17;;
70420;SDS011;57848;51.938;15.520;2023-07-29T07:33:26;5.50;;;2.17;;
70420;SDS011;57848;51.938;15.520;2023-07-29T07:35:52;7.23;;;1.90;;
70420;SDS011;57848;51.938;15.520;2023-07-29T07:38:17;5.87;;;2.23;;
70420;SDS011;57848;51.938;15.520;2023-07-29T07:40:43;5.97;;;2.17;;
70420;SDS011;57848;51.938;15.520;2023-07-29T07:43:18;7.72;;;2.13;;
70420;SDS011;57848;51.938;15.520;2023-07-29T07:45:43;6.37;;;2.00;;
70420;SDS011;57848;51.938;15.520;2023-07-29T07:48:08;5.23;;;2.20;;
70420;SDS011;57848;51.938;15.520;2023-07-29T07:50:35;7.07;;;2.28;;
70420;SDS011;57848;51.938;15.520;2023-07-29T07:53:00;5.80;;;2.67;;
70420;SDS011;57848;51.938;15.520;2023-07-29T07:55:25;5.43;;;2.27;;
70420;SDS011;57848;51.938;15.520;2023-07-29T07:57:51;5.33;;;2.20;;
70420;SDS011;57848;51.938;15.520;2023-07-29T08:00:16;5.90;;;2.53;;
70420;SDS011;57848;51.938;15.520;2023-07-29T08:02:44;7.15;;;3.05;;
70420;SDS011;57848;51.938;15.520;2023-07-29T08:05:09;6.82;;;2.33;;
70420;SDS011;57848;51.938;15.520;2023-07-29T08:07:35;6.60;;;2.83;;
70420;SDS011;57848;51.938;15.520;2023-07-29T08:10:00;6.00;;;2.20;;
70420;SDS011;57848;51.938;15.520;2023-07-29T08:12:25;7.37;;;2.40;;
70420;SDS011;57848;51.938;15.520;2023-07-29T08:14:51;6.53;;;2.60;;
70420;SDS011;57848;51.938;15.520;2023-07-29T08:17:16;5.30;;;2.30;;
70420;SDS011;57848;51.938;15.520;2023-07-29T08:19:41;5.57;;;2.37;;
70420;SDS011;57848;51.938;15.520;2023-07-29T08:22:07;6.30;;;2.30;;
70420;SDS011;57848;51.938;15.520;2023-07-29T08:24:32;5.20;;;2.03;;
70420;SDS011;57848;51.938;15.520;2023-07-29T08:26:59;5.30;;;1.97;;
70420;SDS011;57848;51.938;15.520;2023-07-29T08:29:24;5.68;;;2.28;;
70420;SDS011;57848;51.938;15.520;2023-07-29T08:31:49;5.73;;;2.07;;
70420;SDS011;57848;51.938;15.520;2023-07-29T08:34:16;6.85;;;2.30;;
70420;SDS011;57848;51.938;15.520;2023-07-29T08:36:42;5.43;;;1.73;;
70420;SDS011;57848;51.938;15.520;2023-07-29T08:39:07;6.60;;;2.00;;
70420;SDS011;57848;51.938;15.520;2023-07-29T08:41:34;7.77;;;2.10;;
70420;SDS011;57848;51.938;15.520;2023-07-29T08:44:09;5.65;;;2.10;;
70420;SDS011;57848;51.938;15.520;2023-07-29T08:46:38;6.00;;;2.35;;
70420;SDS011;57848;51.938;15.520;2023-07-29T08:49:03;5.53;;;1.70;;
70420;SDS011;57848;51.938;15.520;2023-07-29T08:51:29;4.82;;;1.77;;
70420;SDS011;57848;51.938;15.520;2023-07-29T08:53:56;5.35;;;1.90;;
70420;SDS011;57848;51.938;15.520;2023-07-29T08:56:24;5.30;;;2.20;;
70420;SDS011;57848;51.938;15.520;2023-07-29T08:58:49;5.17;;;2.10;;
70420;SDS011;57848;51.938;15.520;2023-07-29T09:01:15;5.90;;;2.00;;
70420;SDS011;57848;51.938;15.520;2023-07-29T09:03:41;4.90;;;1.92;;
70420;SDS011;57848;51.938;15.520;2023-07-29T09:06:06;4.95;;;1.92;;
70420;SDS011;57848;51.938;15.520;2023-07-29T09:08:32;5.03;;;1.93;;
70420;SDS011;57848;51.938;15.520;2023-07-29T09:10:58;5.53;;;1.67;;
70420;SDS011;57848;51.938;15.520;2023-07-29T09:13:24;4.90;;;1.85;;
70420;SDS011;57848;51.938;15.520;2023-07-29T09:15:53;5.00;;;1.70;;
70420;SDS011;57848;51.938;15.520;2023-07-29T09:18:19;5.05;;;1.50;;
70420;SDS011;57848;51.938;15.520;2023-07-29T09:20:48;7.07;;;1.52;;
70420;SDS011;57848;51.938;15.520;2023-07-29T09:23:14;4.57;;;1.47;;
70420;SDS011;57848;51.938;15.520;2023-07-29T09:25:40;7.78;;;1.88;;
70420;SDS011;57848;51.938;15.520;2023-07-29T09:28:09;5.23;;;1.70;;
70420;SDS011;57848;51.938;15.520;2023-07-29T09:30:37;4.70;;;1.50;;
70420;SDS011;57848;51.938;15.520;2023-07-29T09:33:07;5.47;;;1.50;;
70420;SDS011;57848;51.938;15.520;2023-07-29T09:35:35;5.43;;;1.35;;
70420;SDS011;57848;51.938;15.520;2023-07-29T09:38:02;4.80;;;1.55;;
70420;SDS011;57848;51.938;15.520;2023-07-29T09:40:33;4.70;;;1.60;;
70420;SDS011;57848;51.938;15.520;2023-07-29T09:43:00;5.10;;;1.77;;
70420;SDS011;57848;51.938;15.520;2023-07-29T09:45:26;4.90;;;1.70;;
70420;SDS011;57848;51.938;15.520;2023-07-29T09:47:52;4.80;;;1.80;;
70420;SDS011;57848;51.938;15.520;2023-07-29T09:50:18;6.43;;;1.98;;
70420;SDS011;57848;51.938;15.520;2023-07-29T09:52:48;6.25;;;1.73;;
70420;SDS011;57848;51.938;15.520;2023-07-29T09:55:13;5.13;;;1.60;;
70420;SDS011;57848;51.938;15.520;2023-07-29T09:57:43;5.13;;;1.60;;
70420;SDS011;57848;51.938;15.520;2023-07-29T10:00:12;4.47;;;1.57;;
70420;SDS011;57848;51.938;15.520;2023-07-29T10:02:39;5.05;;;1.75;;
70420;SDS011;57848;51.938;15.520;2023-07-29T10:05:08;5.20;;;1.77;;
70420;SDS011;57848;51.938;15.520;2023-07-29T10:07:38;5.70;;;1.50;;
70420;SDS011;57848;51.938;15.520;2023-07-29T10:10:04;5.47;;;1.55;;
70420;SDS011;57848;51.938;15.520;2023-07-29T10:12:32;4.67;;;1.67;;
70420;SDS011;57848;51.938;15.520;2023-07-29T10:15:02;5.13;;;1.50;;
70420;SDS011;57848;51.938;15.520;2023-07-29T10:17:29;4.90;;;1.60;;
70420;SDS011;57848;51.938;15.520;2023-07-29T10:19:56;4.88;;;1.40;;
70420;SDS011;57848;51.938;15.520;2023-07-29T10:22:25;4.97;;;1.30;;
70420;SDS011;57848;51.938;15.520;2023-07-29T10:24:54;5.90;;;1.83;;
70420;SDS011;57848;51.938;15.520;2023-07-29T10:27:24;4.38;;;1.55;;
70420;SDS011;57848;51.938;15.520;2023-07-29T10:29:52;6.07;;;1.45;;
70420;SDS011;57848;51.938;15.520;2023-07-29T10:32:20;4.43;;;1.40;;
70420;SDS011;57848;51.938;15.520;2023-07-29T10:34:50;4.72;;;1.40;;
70420;SDS011;57848;51.938;15.520;2023-07-29T10:37:16;6.27;;;1.70;;
70420;SDS011;57848;51.938;15.520;2023-07-29T10:39:51;5.05;;;1.20;;
70420;SDS011;57848;51.938;15.520;2023-07-29T10:42:18;4.40;;;1.60;;
70420;SDS011;57848;51.938;15.520;2023-07-29T10:44:47;4.50;;;1.40;;
70420;SDS011;57848;51.938;15.520;2023-07-29T10:47:20;4.53;;;1.40;;
70420;SDS011;57848;51.938;15.520;2023-07-29T10:49:49;5.45;;;1.30;;
70420;SDS011;57848;51.938;15.520;2023-07-29T10:52:17;4.32;;;1.25;;
70420;SDS011;57848;51.938;15.520;2023-07-29T10:54:53;4.75;;;1.75;;
70420;SDS011;57848;51.938;15.520;2023-07-29T10:59:57;4.82;;;1.40;;
70420;SDS011;57848;51.938;15.520;2023-07-29T11:02:30;4.13;;;1.30;;
70420;SDS011;57848;51.938;15.520;2023-07-29T11:05:06;4.80;;;1.50;;
70420;SDS011;57848;51.938;15.520;2023-07-29T11:07:45;4.82;;;1.50;;
70420;SDS011;57848;51.938;15.520;2023-07-29T11:10:12;7.85;;;1.70;;
70420;SDS011;57848;51.938;15.520;2023-07-29T11:12:48;4.60;;;1.40;;
70420;SDS011;57848;51.938;15.520;2023-07-29T11:15:25;4.70;;;1.55;;
70420;SDS011;57848;51.938;15.520;2023-07-29T11:17:59;6.50;;;1.50;;
70420;SDS011;57848;51.938;15.520;2023-07-29T11:20:30;4.55;;;1.50;;
70420;SDS011;57848;51.938;15.520;2023-07-29T11:22:58;5.47;;;1.70;;
70420;SDS011;57848;51.938;15.520;2023-07-29T11:25:25;4.70;;;1.30;;
70420;SDS011;57848;51.938;15.520;2023-07-29T11:27:52;4.40;;;1.38;;
70420;SDS011;57848;51.938;15.520;2023-07-29T11:30:18;4.50;;;1.50;;
70420;SDS011;57848;51.938;15.520;2023-07-29T11:32:44;4.60;;;1.40;;
70420;SDS011;57848;51.938;15.520;2023-07-29T11:35:12;4.28;;;1.55;;
70420;SDS011;57848;51.938;15.520;2023-07-29T11:37:40;4.88;;;1.55;;
70420;SDS011;57848;51.938;15.520;2023-07-29T11:40:06;4.80;;;1.42;;
70420;SDS011;57848;51.938;15.520;2023-07-29T11:42:33;4.93;;;1.43;;
70420;SDS011;57848;51.938;15.520;2023-07-29T11:44:59;4.20;;;1.27;;
70420;SDS011;57848;51.938;15.520;2023-07-29T11:47:25;4.18;;;1.30;;
70420;SDS011;57848;51.938;15.520;2023-07-29T11:49:51;4.20;;;1.30;;
70420;SDS011;57848;51.938;15.520;2023-07-29T11:52:16;4.38;;;1.45;;
70420;SDS011;57848;51.938;15.520;2023-07-29T11:54:44;5.07;;;1.27;;
70420;SDS011;57848;51.938;15.520;2023-07-29T11:57:11;4.77;;;1.57;;
70420;SDS011;57848;51.938;15.520;2023-07-29T11:59:38;6.35;;;2.03;;
70420;SDS011;57848;51.938;15.520;2023-07-29T12:02:05;7.75;;;1.50;;
70420;SDS011;57848;51.938;15.520;2023-07-29T12:04:39;5.00;;;1.55;;
70420;SDS011;57848;51.938;15.520;2023-07-29T12:07:06;5.53;;;1.70;;
70420;SDS011;57848;51.938;15.520;2023-07-29T12:09:32;5.67;;;1.50;;
70420;SDS011;57848;51.938;15.520;2023-07-29T12:11:59;5.20;;;1.70;;
70420;SDS011;57848;51.938;15.520;2023-07-29T12:14:31;6.28;;;1.70;;
70420;SDS011;57848;51.938;15.520;2023-07-29T12:16:56;5.03;;;1.52;;
70420;SDS011;57848;51.938;15.520;2023-07-29T12:19:30;6.63;;;1.50;;
70420;SDS011;57848;51.938;15.520;2023-07-29T12:22:00;4.40;;;1.30;;
70420;SDS011;57848;51.938;15.520;2023-07-29T12:24:26;4.80;;;1.30;;
70420;SDS011;57848;51.938;15.520;2023-07-29T12:26:52;5.90;;;1.50;;
70420;SDS011;57848;51.938;15.520;2023-07-29T12:29:18;5.60;;;1.50;;
70420;SDS011;57848;51.938;15.520;2023-07-29T12:31:47;5.72;;;1.50;;
70420;SDS011;57848;51.938;15.520;2023-07-29T12:34:19;5.53;;;1.60;;
70420;SDS011;57848;51.938;15.520;2023-07-29T12:36:46;5.07;;;1.50;;
70420;SDS011;57848;51.938;15.520;2023-07-29T12:39:16;7.25;;;1.48;;
70420;SDS011;57848;51.938;15.520;2023-07-29T12:41:45;4.53;;;1.27;;
70420;SDS011;57848;51.938;15.520;2023-07-29T12:44:12;4.75;;;1.33;;
70420;SDS011;57848;51.938;15.520;2023-07-29T12:46:37;5.83;;;1.87;;
70420;SDS011;57848;51.938;15.520;2023-07-29T12:49:02;8.27;;;1.33;;
70420;SDS011;57848;51.938;15.520;2023-07-29T12:51:28;4.73;;;1.30;;
70420;SDS011;57848;51.938;15.520;2023-07-29T12:53:53;7.77;;;1.33;;
70420;SDS011;57848;51.938;15.520;2023-07-29T12:56:19;5.20;;;1.60;;
70420;SDS011;57848;51.938;15.520;2023-07-29T12:58:45;6.87;;;1.93;;
70420;SDS011;57848;51.938;15.520;2023-07-29T13:01:10;4.40;;;1.50;;
70420;SDS011;57848;51.938;15.520;2023-07-29T13:03:41;5.23;;;1.37;;
70420;SDS011;57848;51.938;15.520;2023-07-29T13:06:07;4.45;;;1.40;;
70420;SDS011;57848;51.938;15.520;2023-07-29T13:08:32;4.60;;;1.30;;
70420;SDS011;57848;51.938;15.520;2023-07-29T13:10:57;5.17;;;1.60;;
70420;SDS011;57848;51.938;15.520;2023-07-29T13:13:23;5.50;;;1.40;;
70420;SDS011;57848;51.938;15.520;2023-07-29T13:15:48;4.80;;;1.70;;
70420;SDS011;57848;51.938;15.520;2023-07-29T13:18:13;5.10;;;1.50;;
70420;SDS011;57848;51.938;15.520;2023-07-29T13:20:38;4.40;;;1.57;;
70420;SDS011;57848;51.938;15.520;2023-07-29T13:23:04;5.07;;;1.50;;
70420;SDS011;57848;51.938;15.520;2023-07-29T13:25:29;4.60;;;1.58;;
70420;SDS011;57848;51.938;15.520;2023-07-29T13:27:54;5.33;;;1.70;;
70420;SDS011;57848;51.938;15.520;2023-07-29T13:30:20;4.90;;;1.70;;
70420;SDS011;57848;51.938;15.520;2023-07-29T13:32:45;4.40;;;1.40;;
70420;SDS011;57848;51.938;15.520;2023-07-29T13:35:10;5.10;;;1.60;;
70420;SDS011;57848;51.938;15.520;2023-07-29T13:37:36;6.47;;;1.50;;
70420;SDS011;57848;51.938;15.520;2023-07-29T13:40:01;5.43;;;1.90;;
70420;SDS011;57848;51.938;15.520;2023-07-29T13:42:26;6.47;;;1.60;;
70420;SDS011;57848;51.938;15.520;2023-07-29T13:44:52;8.03;;;1.90;;
70420;SDS011;57848;51.938;15.520;2023-07-29T13:47:17;5.23;;;1.70;;
70420;SDS011;57848;51.938;15.520;2023-07-29T13:49:42;4.80;;;1.60;;
70420;SDS011;57848;51.938;15.520;2023-07-29T13:52:08;5.13;;;1.63;;
70420;SDS011;57848;51.938;15.520;2023-07-29T13:54:33;5.00;;;1.70;;
70420;SDS011;57848;51.938;15.520;2023-07-29T13:56:58;7.07;;;1.83;;
70420;SDS011;57848;51.938;15.520;2023-07-29T13:59:24;5.90;;;1.65;;
70420;SDS011;57848;51.938;15.520;2023-07-29T14:01:49;5.00;;;1.80;;
70420;SDS011;57848;51.938;15.520;2023-07-29T14:04:14;5.10;;;1.80;;
70420;SDS011;57848;51.938;15.520;2023-07-29T14:06:40;5.57;;;1.87;;
70420;SDS011;57848;51.938;15.520;2023-07-29T14:09:05;6.33;;;1.83;;
70420;SDS011;57848;51.938;15.520;2023-07-29T14:11:30;8.47;;;2.10;;
70420;SDS011;57848;51.938;15.520;2023-07-29T14:13:56;5.80;;;1.90;;
70420;SDS011;57848;51.938;15.520;2023-07-29T14:16:21;6.18;;;1.63;;
70420;SDS011;57848;51.938;15.520;2023-07-29T14:18:46;5.20;;;1.80;;
70420;SDS011;57848;51.938;15.520;2023-07-29T14:21:12;4.90;;;1.90;;
70420;SDS011;57848;51.938;15.520;2023-07-29T14:23:37;4.80;;;1.80;;
70420;SDS011;57848;51.938;15.520;2023-07-29T14:26:02;5.77;;;1.57;;
70420;SDS011;57848;51.938;15.520;2023-07-29T14:28:28;6.20;;;1.70;;
70420;SDS011;57848;51.938;15.520;2023-07-29T14:30:53;5.18;;;1.88;;
70420;SDS011;57848;51.938;15.520;2023-07-29T14:33:18;6.73;;;2.10;;